Time;durP1;ratioP1;P1;durP2;ratioP2;P2;SDS_P1;SDS_P2;PMS_P1;PMS_P2;Temp;Humidity;BMP_temperature;BMP_pressure;BME280_temperature;BME280_humidity;BME280_pressure;Samples;Min_cycle;Max_cycle;Signal;HPM_P1;HPM_P2
2023/10/27 00:01:21;;;;;;;36.10;24.70;;;;;;;;;;5054417;28;20383;-57
2023/10/27 00:03:46;;;;;;;32.63;22.65;;;;;;;;;;5061060;28;20403;-57
2023/10/27 00:06:11;;;;;;;38.00;24.93;;;;;;;;;;5064044;28;20408;-57
2023/10/27 00:08:37;;;;;;;36.07;24.70;;;;;;;;;;5064374;28;20404;-57
2023/10/27 00:11:04;;;;;;;34.17;23.93;;;;;;;;;;5059305;28;20424;-57
2023/10/27 00:13:29;;;;;;;35.72;23.95;;;;;;;;;;5065429;28;20441;-57
2023/10/27 00:15:55;;;;;;;35.40;25.17;;;;;;;;;;5063979;28;20481;-57
2023/10/27 00:18:20;;;;;;;39.90;25.80;;;;;;;;;;5059487;28;20392;-57
2023/10/27 00:20:46;;;;;;;35.90;25.40;;;;;;;;;;5064078;28;20406;-57
2023/10/27 00:23:11;;;;;;;36.43;25.20;;;;;;;;;;5063763;28;20424;-57
2023/10/27 00:25:37;;;;;;;39.33;25.45;;;;;;;;;;5060294;28;20414;-57
2023/10/27 00:28:02;;;;;;;41.20;25.80;;;;;;;;;;5063120;28;20906;-57
2023/10/27 00:30:27;;;;;;;34.87;24.40;;;;;;;;;;5056302;28;20403;-57
2023/10/27 00:32:53;;;;;;;34.23;24.00;;;;;;;;;;5061903;28;20890;-56
2023/10/27 00:35:18;;;;;;;38.60;24.93;;;;;;;;;;5061796;28;20442;-57
2023/10/27 00:37:43;;;;;;;41.80;26.83;;;;;;;;;;5063755;28;20407;-57
2023/10/27 00:40:09;;;;;;;34.23;24.03;;;;;;;;;;5061687;28;20388;-57
2023/10/27 00:42:34;;;;;;;42.87;27.23;;;;;;;;;;5059958;28;20400;-57
2023/10/27 00:45:00;;;;;;;35.63;24.20;;;;;;;;;;5063283;28;20771;-57
2023/10/27 00:47:25;;;;;;;38.70;25.35;;;;;;;;;;5063166;28;20396;-57
2023/10/27 00:49:50;;;;;;;37.60;25.97;;;;;;;;;;5059483;28;20541;-57
2023/10/27 00:52:16;;;;;;;40.83;26.70;;;;;;;;;;5059656;28;20496;-57
2023/10/27 00:54:41;;;;;;;43.53;26.67;;;;;;;;;;5063511;28;20529;-57
2023/10/27 00:57:06;;;;;;;36.13;24.40;;;;;;;;;;5057974;28;20436;-57
2023/10/27 00:59:34;;;;;;;39.42;26.27;;;;;;;;;;5070800;28;20459;-57
2023/10/27 01:01:59;;;;;;;41.75;26.80;;;;;;;;;;5064404;28;20423;-56
2023/10/27 01:04:24;;;;;;;43.97;27.17;;;;;;;;;;5063753;28;20395;-57
2023/10/27 01:06:50;;;;;;;45.17;27.47;;;;;;;;;;5059097;28;20402;-57
2023/10/27 01:09:16;;;;;;;46.23;27.30;;;;;;;;;;5063698;28;20433;-57
2023/10/27 01:11:41;;;;;;;43.83;27.05;;;;;;;;;;5063006;28;20501;-57
2023/10/27 01:14:06;;;;;;;46.90;27.40;;;;;;;;;;5058215;28;20411;-57
2023/10/27 01:16:31;;;;;;;47.23;27.87;;;;;;;;;;5063713;28;20399;-57
2023/10/27 01:18:57;;;;;;;43.30;27.10;;;;;;;;;;5063571;28;20805;-57
2023/10/27 01:21:22;;;;;;;38.97;26.38;;;;;;;;;;5058829;28;20406;-56
2023/10/27 01:23:47;;;;;;;41.87;27.03;;;;;;;;;;5062981;28;20408;-57
2023/10/27 01:26:12;;;;;;;47.93;28.70;;;;;;;;;;5062260;28;20485;-57
2023/10/27 01:28:38;;;;;;;44.07;26.83;;;;;;;;;;5060475;28;20404;-57
2023/10/27 01:31:03;;;;;;;50.17;28.53;;;;;;;;;;5058643;28;20425;-57
2023/10/27 01:33:28;;;;;;;42.10;27.37;;;;;;;;;;5062461;28;20809;-57
2023/10/27 01:35:54;;;;;;;49.60;28.90;;;;;;;;;;5061117;28;20391;-57
2023/10/27 01:38:19;;;;;;;46.83;27.45;;;;;;;;;;5060773;28;20404;-56
2023/10/27 01:40:44;;;;;;;47.93;28.13;;;;;;;;;;5062856;28;20912;-57
2023/10/27 01:43:09;;;;;;;49.33;29.47;;;;;;;;;;5061023;28;20488;-56
2023/10/27 01:45:35;;;;;;;51.73;29.40;;;;;;;;;;5060005;28;20406;-57
2023/10/27 01:48:00;;;;;;;55.43;30.20;;;;;;;;;;5062725;28;20398;-57
2023/10/27 01:50:25;;;;;;;52.77;29.50;;;;;;;;;;5056239;28;20401;-57
2023/10/27 01:52:51;;;;;;;49.47;29.33;;;;;;;;;;5056990;28;20483;-57
2023/10/27 01:55:16;;;;;;;49.67;29.58;;;;;;;;;;5061852;28;20513;-57
2023/10/27 01:57:41;;;;;;;49.23;29.67;;;;;;;;;;5062758;28;20890;-57
2023/10/27 02:00:07;;;;;;;37.73;26.03;;;;;;;;;;5058037;28;20740;-57
2023/10/27 02:02:33;;;;;;;59.65;30.63;;;;;;;;;;5062251;28;20409;-57
2023/10/27 02:04:58;;;;;;;49.03;28.17;;;;;;;;;;5062658;28;20457;-57
2023/10/27 02:07:24;;;;;;;46.67;28.30;;;;;;;;;;5057283;28;20756;-57
2023/10/27 02:09:50;;;;;;;63.17;31.38;;;;;;;;;;5066837;28;20407;-57
2023/10/27 02:12:16;;;;;;;53.88;30.15;;;;;;;;;;5066428;28;20923;-57
2023/10/27 02:14:41;;;;;;;51.50;28.93;;;;;;;;;;5050575;28;20415;-57
2023/10/27 02:17:06;;;;;;;49.28;29.38;;;;;;;;;;5033041;28;20600;-57
2023/10/27 02:19:32;;;;;;;41.30;26.80;;;;;;;;;;5037912;28;20396;-57
2023/10/27 02:21:57;;;;;;;52.87;30.67;;;;;;;;;;5037660;28;20399;-58
2023/10/27 02:24:22;;;;;;;59.93;31.07;;;;;;;;;;5030138;28;20398;-57
2023/10/27 02:26:47;;;;;;;52.67;30.37;;;;;;;;;;5030637;28;21055;-58
2023/10/27 02:29:13;;;;;;;50.10;29.77;;;;;;;;;;5024662;28;20403;-58
2023/10/27 02:31:38;;;;;;;42.67;26.10;;;;;;;;;;5024685;28;20415;-58
2023/10/27 02:34:03;;;;;;;55.37;29.60;;;;;;;;;;5028275;28;20429;-58
2023/10/27 02:36:29;;;;;;;52.57;29.20;;;;;;;;;;5034827;28;20402;-58
2023/10/27 02:38:55;;;;;;;65.20;32.05;;;;;;;;;;5030463;28;20414;-58
2023/10/27 02:41:20;;;;;;;54.53;29.80;;;;;;;;;;5031744;28;20403;-57
2023/10/27 02:43:46;;;;;;;59.57;30.80;;;;;;;;;;5033875;28;20395;-58
2023/10/27 02:46:12;;;;;;;62.63;31.60;;;;;;;;;;5030495;28;20411;-58
2023/10/27 02:48:37;;;;;;;53.75;28.80;;;;;;;;;;5034190;28;20397;-57
2023/10/27 02:51:03;;;;;;;60.50;30.43;;;;;;;;;;5025999;28;20419;-58
2023/10/27 02:53:28;;;;;;;43.97;25.77;;;;;;;;;;5023339;28;20420;-57
2023/10/27 02:55:53;;;;;;;57.50;30.33;;;;;;;;;;5023551;28;20482;-57
2023/10/27 02:58:19;;;;;;;49.47;27.53;;;;;;;;;;5031777;28;20411;-58
2023/10/27 03:00:44;;;;;;;57.22;29.13;;;;;;;;;;5030308;28;20406;-57
2023/10/27 03:03:09;;;;;;;62.03;29.83;;;;;;;;;;5006162;28;20896;-57
2023/10/27 03:05:35;;;;;;;59.00;29.63;;;;;;;;;;5005911;28;20403;-57
2023/10/27 03:08:00;;;;;;;42.00;25.00;;;;;;;;;;5007254;28;20458;-57
2023/10/27 03:10:25;;;;;;;47.73;27.63;;;;;;;;;;5005828;28;20411;-57
2023/10/27 03:12:51;;;;;;;55.20;28.80;;;;;;;;;;5000220;28;20417;-57
2023/10/27 03:15:16;;;;;;;57.80;28.55;;;;;;;;;;4999452;28;20406;-57
2023/10/27 03:17:41;;;;;;;63.83;30.03;;;;;;;;;;4998822;28;21077;-57
2023/10/27 03:20:07;;;;;;;57.23;28.23;;;;;;;;;;5002602;28;20405;-57
2023/10/27 03:22:33;;;;;;;54.25;28.13;;;;;;;;;;5010462;28;20404;-58
2023/10/27 03:24:58;;;;;;;55.57;27.30;;;;;;;;;;5010082;28;20772;-57
2023/10/27 03:27:24;;;;;;;53.97;27.03;;;;;;;;;;5005912;28;20762;-57
2023/10/27 03:29:50;;;;;;;51.75;27.00;;;;;;;;;;5006623;28;20409;-57
2023/10/27 03:32:16;;;;;;;49.87;27.53;;;;;;;;;;5007227;28;20415;-57
2023/10/27 03:34:43;;;;;;;41.63;24.27;;;;;;;;;;5002744;28;20410;-58
2023/10/27 03:37:08;;;;;;;43.58;24.77;;;;;;;;;;4998248;28;20978;-57
2023/10/27 03:39:33;;;;;;;45.40;24.90;;;;;;;;;;5000529;28;20414;-57
2023/10/27 03:41:58;;;;;;;51.27;26.33;;;;;;;;;;5000983;28;20408;-57
2023/10/27 03:44:24;;;;;;;57.97;27.08;;;;;;;;;;5004625;28;20437;-57
2023/10/27 03:46:49;;;;;;;56.80;26.43;;;;;;;;;;5007577;28;20906;-57
2023/10/27 03:49:15;;;;;;;49.73;25.47;;;;;;;;;;5005363;28;20410;-57
2023/10/27 03:51:40;;;;;;;43.37;25.43;;;;;;;;;;5005654;28;20872;-58
2023/10/27 03:54:05;;;;;;;49.00;25.67;;;;;;;;;;5005702;28;20492;-58
2023/10/27 03:56:32;;;;;;;55.47;26.03;;;;;;;;;;5006287;28;20762;-57
2023/10/27 03:58:58;;;;;;;45.08;24.80;;;;;;;;;;4997699;28;20403;-57
2023/10/27 04:01:23;;;;;;;43.33;24.30;;;;;;;;;;4942180;28;1822240;-57
2023/10/27 04:03:49;;;;;;;51.43;25.93;;;;;;;;;;5019778;28;20399;-57
2023/10/27 04:06:14;;;;;;;50.57;25.80;;;;;;;;;;5046155;28;20402;-58
2023/10/27 04:08:39;;;;;;;53.60;25.20;;;;;;;;;;5031777;28;20397;-57
2023/10/27 04:11:05;;;;;;;48.67;25.13;;;;;;;;;;5046333;28;20402;-58
2023/10/27 04:13:30;;;;;;;46.53;23.77;;;;;;;;;;5040930;28;20401;-57
2023/10/27 04:15:55;;;;;;;43.57;23.70;;;;;;;;;;5025298;28;21332;-57
2023/10/27 04:18:20;;;;;;;46.90;24.17;;;;;;;;;;5027942;28;20441;-58
2023/10/27 04:20:46;;;;;;;50.87;25.93;;;;;;;;;;5025828;28;20410;-58
2023/10/27 04:23:13;;;;;;;43.27;23.10;;;;;;;;;;5024218;28;20499;-57
2023/10/27 04:25:39;;;;;;;50.80;25.40;;;;;;;;;;5028211;28;20436;-57
2023/10/27 04:28:04;;;;;;;46.25;24.27;;;;;;;;;;5023406;28;21124;-57
2023/10/27 04:30:31;;;;;;;45.83;24.73;;;;;;;;;;5017144;28;20395;-57
2023/10/27 04:32:57;;;;;;;45.42;24.65;;;;;;;;;;5019033;28;21289;-57
2023/10/27 04:35:23;;;;;;;43.67;24.70;;;;;;;;;;5023682;28;20403;-57
2023/10/27 04:37:50;;;;;;;47.60;25.92;;;;;;;;;;5025665;28;20411;-58
2023/10/27 04:40:15;;;;;;;47.47;25.38;;;;;;;;;;5025751;28;20525;-58
2023/10/27 04:42:40;;;;;;;49.27;25.47;;;;;;;;;;5026477;28;20490;-57
2023/10/27 04:45:07;;;;;;;48.10;24.50;;;;;;;;;;5024616;28;20410;-58
2023/10/27 04:47:32;;;;;;;34.25;20.85;;;;;;;;;;5025616;28;20453;-57
2023/10/27 04:49:57;;;;;;;45.20;23.97;;;;;;;;;;5026567;28;20415;-58
2023/10/27 04:52:23;;;;;;;51.60;25.37;;;;;;;;;;5017972;28;20411;-57
2023/10/27 04:54:48;;;;;;;48.60;24.13;;;;;;;;;;5017274;28;20422;-58
2023/10/27 04:57:13;;;;;;;42.88;23.30;;;;;;;;;;5019388;28;20400;-58
2023/10/27 04:59:39;;;;;;;39.37;22.53;;;;;;;;;;5024056;28;20476;-57
2023/10/27 05:02:04;;;;;;;44.40;23.93;;;;;;;;;;5011492;28;20400;-58
2023/10/27 05:04:29;;;;;;;50.27;25.10;;;;;;;;;;5006165;28;20897;-57
2023/10/27 05:06:55;;;;;;;42.50;23.30;;;;;;;;;;5006417;28;20405;-57
2023/10/27 05:09:20;;;;;;;43.03;24.10;;;;;;;;;;5001935;28;21252;-58
2023/10/27 05:11:45;;;;;;;44.37;23.77;;;;;;;;;;4998030;28;20448;-57
2023/10/27 05:14:12;;;;;;;41.03;22.17;;;;;;;;;;4998322;28;20488;-57
2023/10/27 05:16:37;;;;;;;32.28;19.70;;;;;;;;;;5002624;28;20440;-57
2023/10/27 05:19:04;;;;;;;40.07;22.43;;;;;;;;;;5004336;28;20464;-57
2023/10/27 05:21:29;;;;;;;40.72;21.73;;;;;;;;;;5007340;28;20403;-58
2023/10/27 05:24:01;;;;;;;32.13;20.77;;;;;;;;;;5004808;28;20715;-57
2023/10/27 05:26:26;;;;;;;33.90;20.67;;;;;;;;;;5003389;28;20427;-57
2023/10/27 05:28:51;;;;;;;29.20;19.20;;;;;;;;;;5007076;28;20411;-57
2023/10/27 05:31:17;;;;;;;33.40;20.00;;;;;;;;;;5000676;28;20429;-57
2023/10/27 05:33:42;;;;;;;33.20;20.27;;;;;;;;;;4997066;28;20423;-58
2023/10/27 05:36:07;;;;;;;30.20;19.03;;;;;;;;;;4998401;28;20408;-58
2023/10/27 05:38:33;;;;;;;29.43;18.73;;;;;;;;;;5000122;28;20402;-57
2023/10/27 05:40:58;;;;;;;36.97;20.57;;;;;;;;;;5004756;28;20415;-58
2023/10/27 05:43:23;;;;;;;38.90;21.20;;;;;;;;;;5004978;28;20399;-58
2023/10/27 05:45:49;;;;;;;41.78;21.90;;;;;;;;;;5004523;28;20912;-58
2023/10/27 05:48:14;;;;;;;34.93;20.93;;;;;;;;;;5004056;28;20417;-57
2023/10/27 05:50:39;;;;;;;32.40;19.90;;;;;;;;;;5005635;28;20396;-58
2023/10/27 05:53:04;;;;;;;40.97;22.40;;;;;;;;;;5003986;28;20792;-58
2023/10/27 05:55:31;;;;;;;42.73;22.37;;;;;;;;;;4997853;28;20806;-58
2023/10/27 05:57:56;;;;;;;38.93;21.27;;;;;;;;;;4997312;28;20389;-58
2023/10/27 06:00:21;;;;;;;43.30;22.42;;;;;;;;;;4998089;28;20404;-58
2023/10/27 06:02:48;;;;;;;36.57;21.27;;;;;;;;;;5022696;28;20417;-58
2023/10/27 06:05:14;;;;;;;42.00;22.90;;;;;;;;;;5022984;28;20399;-58
2023/10/27 06:07:39;;;;;;;28.35;18.30;;;;;;;;;;5025521;28;21855;-58
2023/10/27 06:10:05;;;;;;;31.83;19.67;;;;;;;;;;5024032;28;20427;-58
2023/10/27 06:12:30;;;;;;;40.00;20.98;;;;;;;;;;5024965;28;20407;-58
2023/10/27 06:14:56;;;;;;;36.43;20.50;;;;;;;;;;5025277;28;20399;-58
2023/10/27 06:17:21;;;;;;;32.53;19.70;;;;;;;;;;5017823;28;21031;-58
2023/10/27 06:19:46;;;;;;;30.20;17.80;;;;;;;;;;5015790;28;20418;-58
2023/10/27 06:22:12;;;;;;;33.17;18.50;;;;;;;;;;5016437;28;20406;-57
2023/10/27 06:24:37;;;;;;;25.77;16.13;;;;;;;;;;5023352;28;20510;-57
2023/10/27 06:27:03;;;;;;;22.20;14.77;;;;;;;;;;5043176;28;20551;-57
2023/10/27 06:29:28;;;;;;;27.00;17.90;;;;;;;;;;5039517;28;20781;-58
2023/10/27 06:31:53;;;;;;;21.30;13.77;;;;;;;;;;5040378;28;20456;-57
2023/10/27 06:34:19;;;;;;;17.37;13.20;;;;;;;;;;5036023;28;20843;-57
2023/10/27 06:36:44;;;;;;;32.93;20.93;;;;;;;;;;5038814;28;20405;-57
2023/10/27 06:39:09;;;;;;;26.10;17.27;;;;;;;;;;5042241;28;20473;-58
2023/10/27 06:41:34;;;;;;;28.77;17.40;;;;;;;;;;5039612;28;20393;-57
2023/10/27 06:44:01;;;;;;;26.20;16.63;;;;;;;;;;5039602;28;20445;-58
2023/10/27 06:46:26;;;;;;;29.67;17.10;;;;;;;;;;5041766;28;20392;-57
2023/10/27 06:48:52;;;;;;;20.70;14.67;;;;;;;;;;5039539;28;20419;-57
2023/10/27 06:51:17;;;;;;;26.30;17.10;;;;;;;;;;5038183;28;20409;-57
2023/10/27 06:53:43;;;;;;;23.27;15.68;;;;;;;;;;5020499;28;20492;-57
2023/10/27 06:56:08;;;;;;;22.67;15.07;;;;;;;;;;5045041;28;20405;-57
2023/10/27 06:58:33;;;;;;;24.67;14.87;;;;;;;;;;5046329;28;20401;-57
2023/10/27 07:01:06;;;;;;;19.80;13.53;;;;;;;;;;5040610;28;20890;-57
2023/10/27 07:03:32;;;;;;;20.63;14.32;;;;;;;;;;5024524;28;20427;-57
2023/10/27 07:05:57;;;;;;;22.77;15.03;;;;;;;;;;5023517;28;20506;-57
2023/10/27 07:08:23;;;;;;;23.77;14.68;;;;;;;;;;5024443;28;20486;-57
2023/10/27 07:10:53;;;;;;;22.17;14.40;;;;;;;;;;5023726;28;20397;-57
2023/10/27 07:13:18;;;;;;;23.48;14.25;;;;;;;;;;5023838;28;20510;-56
2023/10/27 07:15:43;;;;;;;21.67;13.93;;;;;;;;;;5025206;28;20486;-57
2023/10/27 07:18:09;;;;;;;25.80;16.13;;;;;;;;;;5022167;28;20412;-57
2023/10/27 07:20:37;;;;;;;22.73;15.70;;;;;;;;;;5024788;28;20449;-57
2023/10/27 07:23:03;;;;;;;21.30;15.00;;;;;;;;;;5023243;28;20403;-57
2023/10/27 07:25:29;;;;;;;24.27;15.23;;;;;;;;;;5023119;28;20397;-58
2023/10/27 07:27:55;;;;;;;21.67;14.35;;;;;;;;;;5026901;28;20426;-57
2023/10/27 07:30:20;;;;;;;25.42;17.35;;;;;;;;;;5024729;28;20406;-58
2023/10/27 07:32:46;;;;;;;25.67;16.90;;;;;;;;;;5021547;28;20917;-58
2023/10/27 07:35:11;;;;;;;24.67;15.53;;;;;;;;;;5021897;28;20772;-57
2023/10/27 07:37:36;;;;;;;27.60;16.27;;;;;;;;;;5026300;28;20409;-57
2023/10/27 07:40:03;;;;;;;26.52;16.00;;;;;;;;;;5022208;28;20410;-58
2023/10/27 07:42:30;;;;;;;22.85;15.07;;;;;;;;;;5022846;28;20397;-57
2023/10/27 07:44:55;;;;;;;27.05;16.10;;;;;;;;;;5025452;28;20406;-58
2023/10/27 07:47:20;;;;;;;24.63;15.87;;;;;;;;;;5022459;28;20383;-58
2023/10/27 07:49:45;;;;;;;26.43;16.27;;;;;;;;;;5025173;28;20409;-58
2023/10/27 07:52:11;;;;;;;24.93;15.50;;;;;;;;;;5024944;28;20914;-58
2023/10/27 07:54:37;;;;;;;20.80;15.00;;;;;;;;;;5023116;28;20440;-58
2023/10/27 07:57:04;;;;;;;26.77;16.27;;;;;;;;;;5021501;28;20401;-58
2023/10/27 07:59:30;;;;;;;26.00;16.57;;;;;;;;;;5020095;28;20385;-58
2023/10/27 08:01:57;;;;;;;26.50;16.17;;;;;;;;;;5022232;28;20418;-58
2023/10/27 08:04:23;;;;;;;29.63;18.08;;;;;;;;;;5021090;28;20404;-58
2023/10/27 08:06:48;;;;;;;35.80;24.73;;;;;;;;;;5022980;28;20417;-57
2023/10/27 08:09:14;;;;;;;26.90;17.73;;;;;;;;;;5022572;28;20414;-58
2023/10/27 08:11:39;;;;;;;26.67;19.00;;;;;;;;;;5021924;28;20404;-58
2023/10/27 08:14:04;;;;;;;28.30;17.87;;;;;;;;;;5024796;28;20877;-58
2023/10/27 08:16:30;;;;;;;24.60;16.27;;;;;;;;;;5022766;28;20403;-58
2023/10/27 08:18:55;;;;;;;26.05;15.93;;;;;;;;;;5024927;28;20408;-58
2023/10/27 08:21:21;;;;;;;16.47;12.50;;;;;;;;;;5022000;28;20397;-58
2023/10/27 08:23:47;;;;;;;21.77;14.55;;;;;;;;;;5021211;28;20428;-58
2023/10/27 08:26:12;;;;;;;22.90;15.67;;;;;;;;;;5023981;28;20454;-58
2023/10/27 08:28:37;;;;;;;23.80;15.40;;;;;;;;;;5024610;28;20425;-58
2023/10/27 08:31:03;;;;;;;27.70;17.23;;;;;;;;;;5024356;28;20442;-58
2023/10/27 08:33:28;;;;;;;22.03;15.17;;;;;;;;;;5021711;28;20414;-58
2023/10/27 08:35:53;;;;;;;23.55;16.55;;;;;;;;;;5021069;28;20504;-58
2023/10/27 08:38:18;;;;;;;21.47;15.17;;;;;;;;;;5024608;28;20433;-58
2023/10/27 08:40:44;;;;;;;18.90;14.23;;;;;;;;;;5023502;28;20399;-58
2023/10/27 08:43:10;;;;;;;21.50;15.77;;;;;;;;;;5020711;28;20445;-58
2023/10/27 08:45:35;;;;;;;18.40;13.80;;;;;;;;;;5022247;28;20824;-58
2023/10/27 08:48:01;;;;;;;24.47;17.67;;;;;;;;;;5021687;28;20395;-59
2023/10/27 08:50:27;;;;;;;21.45;16.38;;;;;;;;;;5024179;28;20402;-58
2023/10/27 08:52:52;;;;;;;21.13;14.03;;;;;;;;;;5021394;28;20409;-57
2023/10/27 08:55:20;;;;;;;20.25;13.23;;;;;;;;;;5023561;28;20558;-58
2023/10/27 08:57:45;;;;;;;16.15;11.77;;;;;;;;;;5024195;28;20404;-58
2023/10/27 09:00:11;;;;;;;19.40;13.60;;;;;;;;;;5021536;28;20412;-58
2023/10/27 09:02:36;;;;;;;14.10;10.75;;;;;;;;;;5041081;28;20417;-58
2023/10/27 09:05:03;;;;;;;12.57;9.83;;;;;;;;;;5040624;28;20471;-58
2023/10/27 09:07:29;;;;;;;12.48;10.00;;;;;;;;;;5041125;28;20397;-58
2023/10/27 09:09:54;;;;;;;17.08;12.38;;;;;;;;;;5042986;28;20409;-58
2023/10/27 09:12:26;;;;;;;14.43;11.77;;;;;;;;;;5040379;28;20522;-58
2023/10/27 09:14:59;;;;;;;14.05;10.38;;;;;;;;;;5041209;28;20398;-57
2023/10/27 09:17:25;;;;;;;17.02;12.68;;;;;;;;;;5040611;28;20913;-57
2023/10/27 09:20:01;;;;;;;15.35;11.15;;;;;;;;;;5041282;28;20416;-57
2023/10/27 09:22:26;;;;;;;17.45;14.05;;;;;;;;;;5041904;28;20416;-56
2023/10/27 09:24:52;;;;;;;13.53;10.57;;;;;;;;;;5041514;28;20797;-57
2023/10/27 09:27:24;;;;;;;16.83;12.57;;;;;;;;;;5043330;28;20435;-57
2023/10/27 09:29:51;;;;;;;14.75;11.18;;;;;;;;;;5041021;28;20397;-57
2023/10/27 09:32:24;;;;;;;15.65;11.80;;;;;;;;;;5041385;28;21026;-57
2023/10/27 09:34:50;;;;;;;16.08;12.05;;;;;;;;;;5044927;28;20402;-57
2023/10/27 09:37:16;;;;;;;13.88;11.23;;;;;;;;;;5028619;28;20429;-57
2023/10/27 09:39:41;;;;;;;15.80;11.70;;;;;;;;;;5038712;28;20390;-57
2023/10/27 09:42:07;;;;;;;16.05;12.27;;;;;;;;;;5040423;28;20815;-57
2023/10/27 09:44:40;;;;;;;15.57;12.40;;;;;;;;;;5043404;28;20412;-57
2023/10/27 09:47:10;;;;;;;17.63;14.30;;;;;;;;;;5040876;28;20406;-57
2023/10/27 09:49:36;;;;;;;16.70;13.20;;;;;;;;;;5039882;28;20408;-57
2023/10/27 09:52:01;;;;;;;17.50;12.10;;;;;;;;;;5039975;28;20407;-58
2023/10/27 09:54:28;;;;;;;13.93;11.47;;;;;;;;;;5027079;28;20404;-57
2023/10/27 09:56:53;;;;;;;14.82;11.60;;;;;;;;;;5025450;28;20965;-57
2023/10/27 09:59:19;;;;;;;14.53;11.60;;;;;;;;;;5041438;28;20384;-57
2023/10/27 10:01:44;;;;;;;14.30;11.33;;;;;;;;;;5028861;28;20406;-56
2023/10/27 10:04:10;;;;;;;15.53;11.97;;;;;;;;;;5039325;28;20413;-57
2023/10/27 10:06:35;;;;;;;15.00;11.52;;;;;;;;;;5039478;28;20404;-57
2023/10/27 10:09:09;;;;;;;16.13;11.73;;;;;;;;;;5042161;28;20432;-58
2023/10/27 10:11:37;;;;;;;13.70;10.80;;;;;;;;;;5042613;28;20926;-57
2023/10/27 10:14:04;;;;;;;15.07;12.15;;;;;;;;;;5039382;28;20419;-57
2023/10/27 10:16:30;;;;;;;20.00;15.32;;;;;;;;;;5042669;28;20435;-58
2023/10/27 10:18:56;;;;;;;13.13;10.70;;;;;;;;;;5028916;28;20435;-58
2023/10/27 10:21:32;;;;;;;15.35;13.48;;;;;;;;;;5038836;28;20406;-57
2023/10/27 10:23:58;;;;;;;12.57;10.63;;;;;;;;;;5042354;28;20501;-57
2023/10/27 10:26:43;;;;;;;15.20;11.40;;;;;;;;;;5040214;28;20401;-58
2023/10/27 10:29:27;;;;;;;13.03;10.30;;;;;;;;;;5038906;28;20397;-57
2023/10/27 10:31:52;;;;;;;14.50;11.88;;;;;;;;;;5005304;28;20421;-58
2023/10/27 10:34:18;;;;;;;12.83;9.80;;;;;;;;;;5023604;28;21151;-58
2023/10/27 10:36:43;;;;;;;9.90;8.13;;;;;;;;;;5025681;28;20406;-58
2023/10/27 10:39:10;;;;;;;11.00;9.20;;;;;;;;;;5031765;28;20454;-58
2023/10/27 10:41:43;;;;;;;12.43;9.90;;;;;;;;;;5032092;28;20402;-58
2023/10/27 10:44:11;;;;;;;13.05;10.13;;;;;;;;;;5033542;28;20526;-59
2023/10/27 10:46:36;;;;;;;11.70;9.60;;;;;;;;;;5043526;28;20410;-58
2023/10/27 10:49:02;;;;;;;11.20;9.50;;;;;;;;;;5031660;28;20412;-59
2023/10/27 10:51:30;;;;;;;11.17;9.23;;;;;;;;;;5031556;28;20434;-58
2023/10/27 10:53:56;;;;;;;14.48;12.80;;;;;;;;;;5018513;28;20829;-58
2023/10/27 10:56:21;;;;;;;12.67;9.83;;;;;;;;;;5023100;28;20390;-58
2023/10/27 10:58:47;;;;;;;15.00;12.80;;;;;;;;;;5024498;28;20407;-58
2023/10/27 11:01:19;;;;;;;12.63;10.87;;;;;;;;;;5031111;28;20446;-58
2023/10/27 11:03:47;;;;;;;12.95;10.82;;;;;;;;;;5038775;28;20502;-58
2023/10/27 11:06:12;;;;;;;10.25;8.43;;;;;;;;;;5033220;28;20754;-58
2023/10/27 11:08:37;;;;;;;12.37;11.00;;;;;;;;;;5035640;28;20395;-58
2023/10/27 11:11:03;;;;;;;10.87;9.37;;;;;;;;;;5036731;28;20398;-59
2023/10/27 11:13:28;;;;;;;10.88;9.05;;;;;;;;;;5033495;28;20426;-58
2023/10/27 11:15:54;;;;;;;12.23;9.53;;;;;;;;;;5029046;28;20414;-58
2023/10/27 11:18:19;;;;;;;11.40;9.83;;;;;;;;;;5031265;28;20891;-58
2023/10/27 11:20:44;;;;;;;10.85;9.50;;;;;;;;;;5026885;28;20439;-58
2023/10/27 11:23:10;;;;;;;10.53;8.93;;;;;;;;;;5029412;28;20456;-58
2023/10/27 11:25:36;;;;;;;11.07;9.00;;;;;;;;;;5038732;28;20399;-58
2023/10/27 11:28:20;;;;;;;28.40;24.43;;;;;;;;;;5040835;28;21036;-58
2023/10/27 11:30:59;;;;;;;20.00;16.13;;;;;;;;;;5040130;28;20778;-58
2023/10/27 11:33:25;;;;;;;12.88;11.10;;;;;;;;;;5033843;28;20399;-58
2023/10/27 11:35:50;;;;;;;10.73;9.60;;;;;;;;;;5037570;28;20457;-58
2023/10/27 11:38:15;;;;;;;10.70;8.87;;;;;;;;;;5028011;28;20417;-58
2023/10/27 11:40:41;;;;;;;10.93;9.33;;;;;;;;;;5025040;28;20399;-58
2023/10/27 11:43:06;;;;;;;11.05;9.18;;;;;;;;;;5031791;28;20478;-59
2023/10/27 11:45:31;;;;;;;11.10;9.55;;;;;;;;;;5028934;28;20462;-58
2023/10/27 11:47:56;;;;;;;10.17;9.07;;;;;;;;;;5032845;28;20739;-58
2023/10/27 11:50:22;;;;;;;10.00;8.87;;;;;;;;;;5035588;28;20478;-58
2023/10/27 11:52:47;;;;;;;9.53;8.53;;;;;;;;;;5034809;28;20419;-58
2023/10/27 11:55:12;;;;;;;10.23;8.70;;;;;;;;;;5032775;28;20410;-58
2023/10/27 11:57:38;;;;;;;10.60;9.23;;;;;;;;;;5036400;28;20439;-58
2023/10/27 12:00:03;;;;;;;9.83;8.77;;;;;;;;;;5032884;28;20403;-58
2023/10/27 12:02:28;;;;;;;9.02;8.07;;;;;;;;;;5006184;28;20817;-58
2023/10/27 12:04:54;;;;;;;11.87;10.03;;;;;;;;;;5003511;28;20499;-58
2023/10/27 12:07:19;;;;;;;11.80;9.97;;;;;;;;;;5003662;28;21095;-58
2023/10/27 12:09:45;;;;;;;10.27;8.43;;;;;;;;;;5010309;28;20407;-58
2023/10/27 12:12:10;;;;;;;8.90;8.00;;;;;;;;;;5009411;28;20472;-59
2023/10/27 12:14:35;;;;;;;8.90;8.00;;;;;;;;;;5012122;28;20400;-58
2023/10/27 12:17:01;;;;;;;10.20;8.83;;;;;;;;;;5009314;28;20436;-61
2023/10/27 12:19:27;;;;;;;8.73;7.83;;;;;;;;;;5009393;28;20427;-58
2023/10/27 12:21:52;;;;;;;9.85;8.38;;;;;;;;;;5011857;28;20877;-58
2023/10/27 12:24:18;;;;;;;9.17;8.17;;;;;;;;;;5003026;28;20410;-58
2023/10/27 12:26:44;;;;;;;9.23;8.30;;;;;;;;;;5001905;28;21166;-58
2023/10/27 12:29:10;;;;;;;8.77;7.88;;;;;;;;;;5005579;28;20878;-59
2023/10/27 12:31:35;;;;;;;8.63;7.72;;;;;;;;;;5008706;28;20433;-58
2023/10/27 12:34:01;;;;;;;8.40;7.50;;;;;;;;;;5008306;28;20403;-60
2023/10/27 12:36:26;;;;;;;8.00;7.20;;;;;;;;;;5011239;28;20405;-58
2023/10/27 12:38:51;;;;;;;38.57;30.37;;;;;;;;;;5010890;28;20933;-58
2023/10/27 12:41:18;;;;;;;10.30;9.20;;;;;;;;;;5008668;28;20907;-59
2023/10/27 12:43:43;;;;;;;36.13;29.33;;;;;;;;;;5010147;28;20409;-58
2023/10/27 12:46:09;;;;;;;16.13;13.87;;;;;;;;;;5006494;28;20662;-59
2023/10/27 12:48:34;;;;;;;13.13;11.30;;;;;;;;;;5001400;28;20403;-59
2023/10/27 12:51:00;;;;;;;16.53;13.57;;;;;;;;;;5002652;28;20460;-59
2023/10/27 12:53:25;;;;;;;20.33;14.83;;;;;;;;;;5006070;28;20402;-59
2023/10/27 12:55:51;;;;;;;10.90;9.40;;;;;;;;;;5008953;28;20913;-59
2023/10/27 12:58:16;;;;;;;9.70;8.20;;;;;;;;;;5008882;28;20411;-59
2023/10/27 13:00:41;;;;;;;9.07;8.17;;;;;;;;;;5013612;28;20406;-59
2023/10/27 13:03:07;;;;;;;8.83;7.93;;;;;;;;;;5028113;28;20415;-59
2023/10/27 13:05:34;;;;;;;8.60;7.75;;;;;;;;;;5028432;28;20406;-59
2023/10/27 13:08:01;;;;;;;9.15;8.25;;;;;;;;;;5029896;28;20839;-58
2023/10/27 13:10:26;;;;;;;9.13;7.93;;;;;;;;;;5019855;28;21198;-58
2023/10/27 13:12:57;;;;;;;8.60;7.32;;;;;;;;;;5020181;28;21075;-58
2023/10/27 13:15:23;;;;;;;8.73;7.80;;;;;;;;;;5023842;28;20423;-58
2023/10/27 13:17:48;;;;;;;4.63;3.47;;;;;;;;;;5027486;28;20428;-58
2023/10/27 13:20:13;;;;;;;4.87;3.83;;;;;;;;;;5027935;28;20899;-58
2023/10/27 13:22:39;;;;;;;5.80;4.10;;;;;;;;;;5029268;28;20912;-58
2023/10/27 13:25:05;;;;;;;5.17;3.50;;;;;;;;;;5029112;28;20497;-59
2023/10/27 13:27:31;;;;;;;5.15;4.00;;;;;;;;;;5028007;28;20421;-58
2023/10/27 13:29:58;;;;;;;5.33;3.53;;;;;;;;;;5028341;28;20415;-58
2023/10/27 13:32:24;;;;;;;4.78;3.10;;;;;;;;;;5023351;28;20885;-59
2023/10/27 13:34:50;;;;;;;3.40;2.40;;;;;;;;;;5020619;28;20950;-59
2023/10/27 13:37:15;;;;;;;1.63;1.37;;;;;;;;;;5019806;28;20482;-58
2023/10/27 13:39:40;;;;;;;3.97;1.10;;;;;;;;;;5028790;28;20391;-58
2023/10/27 13:42:06;;;;;;;1.93;1.20;;;;;;;;;;5027265;28;20397;-59
2023/10/27 13:44:31;;;;;;;17.87;5.87;;;;;;;;;;5027772;28;20808;-58
2023/10/27 13:46:56;;;;;;;4.72;1.58;;;;;;;;;;5029633;28;20415;-58
2023/10/27 13:49:22;;;;;;;56.73;17.97;;;;;;;;;;5028291;28;21105;-58
2023/10/27 13:51:47;;;;;;;8.40;2.83;;;;;;;;;;5028315;28;20495;-59
2023/10/27 13:54:12;;;;;;;2.93;1.40;;;;;;;;;;5024891;28;20411;-59
2023/10/27 13:56:38;;;;;;;2.60;1.60;;;;;;;;;;5021835;28;20769;-59
2023/10/27 13:59:04;;;;;;;4.07;1.92;;;;;;;;;;5019488;28;20407;-59
2023/10/27 14:01:29;;;;;;;3.07;1.70;;;;;;;;;;5016623;28;20449;-58
2023/10/27 14:03:54;;;;;;;3.88;1.50;;;;;;;;;;5012190;28;20403;-59
2023/10/27 14:06:20;;;;;;;2.77;1.47;;;;;;;;;;5011545;28;20508;-59
2023/10/27 14:08:45;;;;;;;3.20;1.70;;;;;;;;;;5013860;28;20494;-59
2023/10/27 14:11:10;;;;;;;3.73;1.83;;;;;;;;;;5014286;28;20412;-58
2023/10/27 14:13:36;;;;;;;3.47;2.03;;;;;;;;;;5011518;28;20422;-59